Angistri — SZMQ — position and weather

sailwx.info

Track history (hours):
 
Tides and Currents Weather Stations Pressure Air Temp Water Temp Dewpoint Dewpoint Depression Visibility Wind Speed Wind Dir Waves Ship Positions

Angistri

Last reported at 2018-Jun-21 19:56 UTC. Time now 2018-Jun-21 20:00 UTC.
Position N 28°04' W 094°24'.

Length 214 m; draft 8 m.

Type: Tanker. MMSI: 239668000.

Date/timePositionNaut miles runAvg speedWind from/ knotsBaromVisibWave heightAir tempDewpointWater temp
2018-Jun-21 19:56N 28°04' W 094°24'1113.5
2018-Jun-21 19:07N 27°53' W 094°24'3413.7
2018-Jun-21 16:38N 27°19' W 094°21'213.8
2018-Jun-21 16:30N 27°17' W 094°21'713.7
2018-Jun-21 15:59N 27°10' W 094°20'1515.6
2018-Jun-21 15:00N 26°55' W 094°17'815.7
2018-Jun-21 14:30N 26°47' W 094°15'815.5
2018-Jun-21 14:01N 26°40' W 094°14'815.0
2018-Jun-21 13:30N 26°32' W 094°13'  
Track history (hours):
 
Tides and Currents Weather Stations Pressure Air Temp Water Temp Dewpoint Dewpoint Depression Visibility Wind Speed Wind Dir Waves Ship Positions

Angistri

Last reported at 2018-Jun-21 19:56 UTC. Time now 2018-Jun-21 20:00 UTC.
Position N 28°04' W 094°24'.

Length 214 m; draft 8 m.

Type: Tanker. MMSI: 239668000.

Date/timePositionNaut miles runAvg speedWind from/ knotsBaromVisibWave heightAir tempDewpointWater temp
2018-Jun-21 19:56N 28°04' W 094°24'1113.5
2018-Jun-21 19:07N 27°53' W 094°24'3413.7
2018-Jun-21 16:38N 27°19' W 094°21'213.8
2018-Jun-21 16:30N 27°17' W 094°21'713.7
2018-Jun-21 15:59N 27°10' W 094°20'1515.6
2018-Jun-21 15:00N 26°55' W 094°17'815.7
2018-Jun-21 14:30N 26°47' W 094°15'815.5
2018-Jun-21 14:01N 26°40' W 094°14'815.0
2018-Jun-21 13:30N 26°32' W 094°13'  

Dump ship's entire track history